Terminal Aerodrome Forecast
Issued by NWS St Louis, MO

Home | Current Version | Previous Version | Text Only | Print | Product List | Glossary On
Versions: 1 2 3 4 5 6 7 8 9 10 11 12 13 14 15 16 17 18 19 20 21 22
915
FTUS43 KLSX 260833 AAA
TAFCOU
TAF AMD
KCOU 260833Z 2609/2706 05005KT P6SM VCSH SCT040 BKN120
      TEMPO 2609/2611 BKN006
     FM261200 10006KT P6SM BKN030
     FM261900 13007KT P6SM VCTS BKN040CB
     FM270100 13006KT P6SM SCT050 BKN120=

USA.gov is the U.S. government's official web portal to all federal, state and local government web resources and services.